Time;durP1;ratioP1;P1;durP2;ratioP2;P2;SDS_P1;SDS_P2;PMS_P1;PMS_P2;Temp;Humidity;BMP_temperature;BMP_pressure;BME280_temperature;BME280_humidity;BME280_pressure;Samples;Min_cycle;Max_cycle;Signal;HPM_P1;HPM_P2
2023/02/19 00:02:17;;;;;;;7.03;2.58;;;9.90;99.90;;;;;;5000744;28;20176;-88
2023/02/19 00:04:43;;;;;;;4.40;2.05;;;9.90;99.90;;;;;;4968087;28;20088;-88
2023/02/19 00:07:11;;;;;;;3.67;1.80;;;9.90;99.90;;;;;;4975257;28;20099;-88
2023/02/19 00:09:38;;;;;;;5.50;2.15;;;9.80;99.90;;;;;;4991003;28;20726;-89
2023/02/19 00:12:05;;;;;;;6.97;2.50;;;9.80;99.90;;;;;;5025768;28;20056;-88
2023/02/19 00:14:32;;;;;;;4.70;1.80;;;9.80;99.90;;;;;;5011542;28;20118;-88
2023/02/19 00:17:00;;;;;;;7.90;2.33;;;9.70;99.90;;;;;;4987095;28;20056;-88
2023/02/19 00:19:27;;;;;;;6.97;1.77;;;9.70;99.90;;;;;;5007683;28;20473;-87
2023/02/19 00:21:54;;;;;;;4.25;1.70;;;9.70;99.90;;;;;;5006795;28;20124;-87
2023/02/19 00:24:21;;;;;;;4.18;1.77;;;9.70;99.90;;;;;;4986767;28;20194;-88
2023/02/19 00:26:48;;;;;;;8.45;2.10;;;9.70;99.90;;;;;;5005790;28;20049;-88
2023/02/19 00:29:17;;;;;;;7.20;2.25;;;9.70;99.90;;;;;;5006559;28;20488;-87
2023/02/19 00:31:45;;;;;;;6.47;2.40;;;9.70;99.90;;;;;;4980396;28;20103;-87
2023/02/19 00:34:12;;;;;;;6.70;2.40;;;9.70;99.90;;;;;;4990858;28;20068;-88
2023/02/19 00:36:40;;;;;;;6.70;2.13;;;9.70;99.90;;;;;;5006260;28;20628;-88
2023/02/19 00:39:07;;;;;;;4.97;1.83;;;9.70;99.90;;;;;;4993872;28;20434;-87
2023/02/19 00:41:34;;;;;;;5.93;2.13;;;9.70;99.90;;;;;;4987853;28;20045;-88
2023/02/19 00:44:05;;;;;;;5.25;2.08;;;9.80;99.90;;;;;;5006248;28;20053;-88
2023/02/19 00:46:37;;;;;;;4.65;2.05;;;9.80;99.90;;;;;;5005398;28;20395;-88
2023/02/19 00:49:05;;;;;;;6.90;2.38;;;9.80;99.90;;;;;;4662392;28;10000524;-88
2023/02/19 00:51:33;;;;;;;6.55;2.10;;;9.80;99.90;;;;;;4990034;28;20053;-85
2023/02/19 00:54:00;;;;;;;6.85;2.42;;;9.80;99.90;;;;;;4993231;28;20053;-88
2023/02/19 00:56:28;;;;;;;7.22;1.80;;;9.80;99.90;;;;;;5010909;28;20133;-87
2023/02/19 00:58:55;;;;;;;5.80;1.80;;;9.80;99.90;;;;;;4987319;28;20128;-89
2023/02/19 01:01:22;;;;;;;4.22;1.65;;;9.70;99.90;;;;;;5011033;28;20316;-88
2023/02/19 01:03:49;;;;;;;5.57;2.17;;;9.70;99.90;;;;;;4991233;28;20053;-87
2023/02/19 01:06:17;;;;;;;3.95;1.60;;;9.60;99.90;;;;;;5004251;28;20053;-87
2023/02/19 01:08:44;;;;;;;6.50;1.83;;;9.60;99.90;;;;;;4978735;28;20041;-87
2023/02/19 01:11:11;;;;;;;5.85;2.20;;;9.50;99.90;;;;;;4994610;28;20080;-88
2023/02/19 01:13:39;;;;;;;4.00;1.80;;;9.50;99.90;;;;;;4994540;28;20042;-87
2023/02/19 01:16:08;;;;;;;6.10;2.53;;;9.50;99.90;;;;;;4993538;28;20427;-87
2023/02/19 01:18:35;;;;;;;6.03;1.90;;;9.50;99.90;;;;;;5011429;28;20049;-88
2023/02/19 01:21:25;;;;;;;5.40;1.88;;;9.50;99.90;;;;;;4994618;28;20376;-86
2023/02/19 01:23:53;;;;;;;6.30;2.10;;;9.50;99.90;;;;;;5008053;28;20081;-88
2023/02/19 01:26:22;;;;;;;6.90;2.53;;;9.40;99.90;;;;;;5010737;28;20049;-85
2023/02/19 01:28:49;;;;;;;4.53;2.00;;;9.50;99.90;;;;;;5009753;28;20077;-86
2023/02/19 01:31:21;;;;;;;5.35;2.38;;;9.50;99.90;;;;;;4985467;28;20041;-87
2023/02/19 01:33:53;;;;;;;4.32;1.73;;;9.50;99.90;;;;;;5017234;28;20465;-87
2023/02/19 01:36:20;;;;;;;5.07;1.95;;;9.50;99.90;;;;;;5010649;28;20336;-87
2023/02/19 01:38:48;;;;;;;5.20;1.88;;;9.50;99.90;;;;;;4998675;28;20406;-87
2023/02/19 01:41:17;;;;;;;6.45;2.45;;;9.60;99.90;;;;;;4994038;28;20049;-87
2023/02/19 01:44:02;;;;;;;7.05;2.05;;;9.60;99.90;;;;;;5007845;28;20054;-88
2023/02/19 01:46:31;;;;;;;4.68;2.42;;;9.70;99.90;;;;;;5017279;28;20095;-87
2023/02/19 01:49:00;;;;;;;4.22;1.20;;;9.70;99.90;;;;;;5010306;28;20096;-86
2023/02/19 01:51:27;;;;;;;4.45;1.33;;;9.70;99.90;;;;;;4979125;28;20054;-86
2023/02/19 01:53:57;;;;;;;3.63;1.25;;;9.70;99.90;;;;;;4990821;28;20396;-88
2023/02/19 01:56:24;;;;;;;4.32;1.52;;;9.80;99.90;;;;;;4983694;28;20057;-88
2023/02/19 01:58:51;;;;;;;4.03;1.50;;;9.80;99.90;;;;;;4996625;28;20440;-87
2023/02/19 02:01:18;;;;;;;4.22;1.50;;;9.80;99.90;;;;;;4999858;28;20042;-87
2023/02/19 02:03:46;;;;;;;3.40;1.35;;;9.80;99.90;;;;;;4983854;28;20057;-86
2023/02/19 02:06:28;;;;;;;4.57;1.92;;;9.70;99.90;;;;;;5006230;28;20419;-86
2023/02/19 02:11:51;;;;;;;4.00;1.58;;;9.60;99.90;;;;;;4999964;28;20366;-84
2023/02/19 02:14:20;;;;;;;3.90;1.45;;;9.60;99.90;;;;;;4972173;28;20058;-86
2023/02/19 02:16:50;;;;;;;3.25;1.70;;;9.50;99.90;;;;;;4988310;28;20522;-86
2023/02/19 02:19:26;;;;;;;4.15;1.42;;;9.40;99.90;;;;;;5004799;28;20053;-86
2023/02/19 02:22:11;;;;;;;3.47;1.52;;;9.40;99.90;;;;;;4992784;28;20054;-86
2023/02/19 02:25:16;;;;;;;4.82;1.70;;;9.30;99.90;;;;;;5004162;28;20473;-88
2023/02/19 02:28:22;;;;;;;2.97;1.40;;;9.20;99.90;;;;;;5002848;28;20049;-87
2023/02/19 02:30:51;;;;;;;4.18;1.22;;;9.20;99.90;;;;;;4654083;28;10001274;-86
2023/02/19 02:33:31;;;;;;;5.32;1.58;;;9.10;99.90;;;;;;4994169;28;20050;-86
2023/02/19 02:36:30;;;;;;;3.17;1.40;;;9.00;99.90;;;;;;5008923;28;20122;-87
2023/02/19 02:38:57;;;;;;;2.97;1.85;;;9.00;99.90;;;;;;4987138;28;20125;-86
2023/02/19 02:41:24;;;;;;;2.42;1.20;;;8.90;99.90;;;;;;5008578;28;20112;-85
2023/02/19 02:43:50;;;;;;;3.88;1.40;;;8.90;99.90;;;;;;4967750;28;20077;-87
2023/02/19 02:46:23;;;;;;;4.40;1.65;;;8.90;99.90;;;;;;5007745;28;20453;-86
2023/02/19 02:48:55;;;;;;;3.17;1.30;;;8.80;99.90;;;;;;4995894;28;20542;-86
2023/02/19 02:51:25;;;;;;;1.48;1.20;;;8.80;99.90;;;;;;4993950;28;20058;-87
2023/02/19 02:56:56;;;;;;;2.97;1.42;;;8.80;99.90;;;;;;4975363;28;20132;-86
2023/02/19 02:59:25;;;;;;;1.52;1.00;;;8.70;99.90;;;;;;4970947;28;20134;-85
2023/02/19 03:02:17;;;;;;;4.60;1.52;;;8.70;99.90;;;;;;4987467;28;20074;-86
2023/02/19 03:08:11;;;;;;;2.00;1.00;;;8.60;99.90;;;;;;4987447;28;20354;-85
2023/02/19 03:10:44;;;;;;;2.35;1.27;;;8.60;99.90;;;;;;4986556;28;20061;-85
2023/02/19 03:19:19;;;;;;;4.65;1.50;;;8.70;99.90;;;;;;4974989;28;20130;-86
2023/02/19 03:22:30;;;;;;;4.32;1.30;;;8.70;99.90;;;;;;4972316;28;20568;-87
2023/02/19 03:27:58;;;;;;;3.28;1.40;;;8.80;99.90;;;;;;4974820;28;20141;-85
2023/02/19 03:30:28;;;;;;;3.95;1.50;;;8.80;99.90;;;;;;4984866;28;20641;-85
2023/02/19 03:33:28;;;;;;;5.93;1.92;;;8.80;99.90;;;;;;4986051;28;20070;-86
2023/02/19 03:35:56;;;;;;;4.60;1.80;;;8.80;99.90;;;;;;4978201;28;20050;-85
2023/02/19 03:38:35;;;;;;;3.13;1.83;;;8.80;99.90;;;;;;4983548;28;20879;-87
2023/02/19 03:41:27;;;;;;;2.92;1.27;;;8.80;99.90;;;;;;4952615;28;20081;-86
2023/02/19 03:44:12;;;;;;;3.45;1.20;;;8.90;99.90;;;;;;4985178;28;20054;-86
2023/02/19 03:46:49;;;;;;;3.15;1.38;;;8.90;99.90;;;;;;4984684;28;20046;-84
2023/02/19 03:49:31;;;;;;;3.22;1.20;;;9.00;99.90;;;;;;4980193;28;20051;-85
2023/02/19 03:52:33;;;;;;;2.70;1.23;;;8.90;99.90;;;;;;4966699;28;20165;-86
2023/02/19 03:55:14;;;;;;;3.92;1.35;;;8.90;99.90;;;;;;4965139;28;20046;-86
2023/02/19 03:57:49;;;;;;;8.38;2.13;;;8.80;99.90;;;;;;4986464;28;20419;-86
2023/02/19 04:00:22;;;;;;;4.90;2.05;;;8.80;99.90;;;;;;4969911;28;20069;-86
2023/02/19 04:03:10;;;;;;;;;;;8.70;99.90;;;;;;5009348;28;20053;-85
2023/02/19 04:05:40;;;;;;;1.63;1.08;;;8.70;99.90;;;;;;4993865;28;19929;-86
2023/02/19 04:08:13;;;;;;;3.60;1.40;;;8.70;99.90;;;;;;4994448;28;20082;-85
2023/02/19 04:10:40;;;;;;;2.03;0.90;;;8.60;99.90;;;;;;4982205;28;20149;-85
2023/02/19 04:13:10;;;;;;;4.68;1.90;;;8.60;99.90;;;;;;4969450;28;20405;-86
2023/02/19 04:15:37;;;;;;;1.98;1.00;;;8.60;99.90;;;;;;4953599;28;20157;-85
2023/02/19 04:18:06;;;;;;;4.50;1.73;;;8.50;99.90;;;;;;4970108;28;20073;-86
2023/02/19 04:20:38;;;;;;;3.25;1.02;;;8.50;99.90;;;;;;4976600;28;20129;-87
2023/02/19 04:23:05;;;;;;;4.10;1.40;;;8.50;99.90;;;;;;4993896;28;20065;-86
2023/02/19 04:25:32;;;;;;;2.85;1.17;;;8.50;99.90;;;;;;4990932;28;20058;-86
2023/02/19 04:27:59;;;;;;;1.63;1.08;;;8.50;99.90;;;;;;4968779;28;20054;-86
2023/02/19 04:30:26;;;;;;;4.60;1.45;;;8.50;99.90;;;;;;4969234;28;20058;-85
2023/02/19 04:32:53;;;;;;;4.68;1.45;;;8.60;99.90;;;;;;4954631;28;20086;-85
2023/02/19 04:35:20;;;;;;;3.90;1.60;;;8.70;99.90;;;;;;4970483;28;20057;-86
2023/02/19 04:37:47;;;;;;;4.50;1.60;;;8.70;99.90;;;;;;5003230;28;20386;-86
2023/02/19 04:40:13;;;;;;;3.00;1.38;;;8.80;99.90;;;;;;4985798;28;20050;-86
2023/02/19 04:42:40;;;;;;;4.63;1.40;;;8.80;99.90;;;;;;4978103;28;20050;-85
2023/02/19 04:45:07;;;;;;;3.05;1.30;;;8.90;99.90;;;;;;4950924;28;20047;-85
2023/02/19 04:47:34;;;;;;;2.38;1.05;;;8.90;99.90;;;;;;4966991;28;20210;-86
2023/02/19 04:50:01;;;;;;;5.75;1.90;;;8.90;99.90;;;;;;4966990;28;20469;-86
2023/02/19 04:52:28;;;;;;;6.90;2.00;;;9.00;99.90;;;;;;4980888;28;20085;-86
2023/02/19 04:54:55;;;;;;;3.38;1.58;;;9.00;99.90;;;;;;5005555;28;20533;-85
2023/02/19 04:57:21;;;;;;;5.85;1.77;;;9.00;99.90;;;;;;5005630;28;20129;-85
2023/02/19 04:59:48;;;;;;;4.63;1.42;;;9.10;99.90;;;;;;5005433;28;20064;-85
2023/02/19 05:02:16;;;;;;;4.38;1.33;;;9.10;99.90;;;;;;4989346;28;20746;-85
2023/02/19 05:04:43;;;;;;;3.65;1.20;;;9.10;99.90;;;;;;4988101;28;20051;-86
2023/02/19 05:07:10;;;;;;;2.20;1.20;;;9.10;99.90;;;;;;5002237;28;20135;-87
2023/02/19 05:09:37;;;;;;;3.47;1.83;;;9.10;99.90;;;;;;5022915;28;20374;-85
2023/02/19 05:12:04;;;;;;;2.60;1.30;;;9.20;99.90;;;;;;5005915;28;20502;-85
2023/02/19 05:14:31;;;;;;;3.33;1.48;;;9.20;99.90;;;;;;5005541;28;20045;-86
2023/02/19 05:16:58;;;;;;;4.00;1.30;;;9.20;99.90;;;;;;5005491;28;20069;-86
2023/02/19 05:19:25;;;;;;;4.38;1.63;;;9.20;99.90;;;;;;5022520;28;20141;-85
2023/02/19 05:21:53;;;;;;;4.07;1.17;;;9.30;99.90;;;;;;4992600;28;20054;-85
2023/02/19 05:24:20;;;;;;;3.30;1.30;;;9.30;99.90;;;;;;5008269;28;20050;-85
2023/02/19 05:26:47;;;;;;;2.40;1.10;;;9.30;99.90;;;;;;4992326;28;20574;-86
2023/02/19 05:29:14;;;;;;;3.45;1.30;;;9.30;99.90;;;;;;4992801;28;20420;-85
2023/02/19 05:31:41;;;;;;;3.30;1.70;;;9.30;99.90;;;;;;5008159;28;20053;-85
2023/02/19 05:34:08;;;;;;;4.70;1.80;;;9.20;99.90;;;;;;5008690;28;20115;-86
2023/02/19 05:36:36;;;;;;;4.15;1.20;;;9.20;99.90;;;;;;5009460;28;20045;-86
2023/02/19 05:39:05;;;;;;;4.25;1.60;;;9.10;99.90;;;;;;4988125;28;20161;-88
2023/02/19 05:41:31;;;;;;;4.25;1.40;;;9.00;99.90;;;;;;5008251;28;20060;-88
2023/02/19 05:43:58;;;;;;;4.93;1.50;;;9.00;99.90;;;;;;5030993;28;20608;-86
2023/02/19 05:46:28;;;;;;;2.53;1.40;;;8.90;99.90;;;;;;4994376;28;20039;-85
2023/02/19 05:48:56;;;;;;;2.75;1.33;;;8.80;99.90;;;;;;4990855;28;20167;-86
2023/02/19 05:51:25;;;;;;;2.53;1.13;;;8.80;99.90;;;;;;4976328;28;20057;-85
2023/02/19 05:53:52;;;;;;;3.83;1.30;;;8.80;99.90;;;;;;4975968;28;20064;-87
2023/02/19 05:56:26;;;;;;;2.45;1.42;;;8.70;99.90;;;;;;4985334;28;20058;-85
2023/02/19 05:58:53;;;;;;;2.47;1.08;;;8.70;99.90;;;;;;4995355;28;20057;-87
2023/02/19 06:01:21;;;;;;;2.00;1.10;;;8.70;99.90;;;;;;4960558;28;20042;-85
2023/02/19 06:03:48;;;;;;;2.35;0.88;;;8.60;99.90;;;;;;4983468;28;20073;-88
2023/02/19 06:06:16;;;;;;;2.35;1.00;;;8.60;99.90;;;;;;4971320;28;20642;-89
2023/02/19 06:08:44;;;;;;;0.98;0.65;;;8.60;99.90;;;;;;4993316;28;20636;-89
2023/02/19 06:11:11;;;;;;;2.38;0.80;;;8.60;99.90;;;;;;5002712;28;20045;-87
2023/02/19 06:13:38;;;;;;;1.50;0.93;;;8.50;99.90;;;;;;4965200;28;20136;-86
2023/02/19 06:16:05;;;;;;;2.67;1.13;;;8.50;99.90;;;;;;4979151;28;20054;-85
2023/02/19 06:18:32;;;;;;;2.67;1.15;;;8.40;99.90;;;;;;4983183;28;20077;-84
2023/02/19 06:21:01;;;;;;;1.05;0.57;;;8.40;99.90;;;;;;4974533;28;20051;-84
2023/02/19 06:23:28;;;;;;;2.95;0.98;;;8.40;99.90;;;;;;4961352;28;20047;-85
2023/02/19 06:26:03;;;;;;;1.67;0.70;;;8.40;99.90;;;;;;4966102;28;20610;-85
2023/02/19 06:28:30;;;;;;;0.75;0.60;;;8.30;99.90;;;;;;4969876;28;20059;-88
2023/02/19 06:30:58;;;;;;;3.83;1.33;;;8.30;99.90;;;;;;4966999;28;20050;-87
2023/02/19 06:33:26;;;;;;;2.78;1.55;;;8.30;99.90;;;;;;4981190;28;20504;-88
2023/02/19 06:35:53;;;;;;;1.75;0.90;;;8.30;99.90;;;;;;4984080;28;20681;-88
2023/02/19 06:38:21;;;;;;;3.38;1.55;;;8.30;99.90;;;;;;4949317;28;20070;-88
2023/02/19 06:40:48;;;;;;;1.67;0.95;;;8.20;99.90;;;;;;4981145;28;20053;-89
2023/02/19 06:43:15;;;;;;;1.55;1.17;;;8.20;99.90;;;;;;4959275;28;20072;-88
2023/02/19 06:45:42;;;;;;;1.73;0.93;;;8.20;99.90;;;;;;4980129;28;20462;-88
2023/02/19 06:48:09;;;;;;;3.13;0.93;;;8.20;99.90;;;;;;4982096;28;20114;-89
2023/02/19 06:50:36;;;;;;;2.13;1.00;;;8.10;99.90;;;;;;4976093;28;20039;-90
2023/02/19 06:53:03;;;;;;;2.25;0.90;;;8.10;99.90;;;;;;5025794;28;20172;-87
2023/02/19 06:55:30;;;;;;;2.85;1.50;;;8.10;99.90;;;;;;4989482;28;20096;-88
2023/02/19 06:57:57;;;;;;;2.83;1.10;;;8.10;99.90;;;;;;4994682;28;20041;-88
2023/02/19 07:00:25;;;;;;;2.13;1.00;;;8.00;99.90;;;;;;4999809;28;20053;-88
2023/02/19 07:02:55;;;;;;;2.05;1.00;;;8.00;99.90;;;;;;5001099;28;20568;-87
2023/02/19 07:05:22;;;;;;;1.25;1.15;;;8.00;99.90;;;;;;5000145;28;20183;-87
2023/02/19 07:07:49;;;;;;;2.65;0.85;;;8.00;99.90;;;;;;5004739;28;20090;-87
2023/02/19 07:10:16;;;;;;;1.45;0.90;;;8.00;99.90;;;;;;5000440;28;20073;-88
2023/02/19 07:12:44;;;;;;;1.35;0.80;;;7.90;99.90;;;;;;4999327;28;20418;-87
2023/02/19 07:15:10;;;;;;;1.95;0.70;;;7.90;99.90;;;;;;5000892;28;20077;-87
2023/02/19 07:17:38;;;;;;;4.32;1.10;;;7.90;99.90;;;;;;4986620;28;20501;-86
2023/02/19 07:20:05;;;;;;;4.57;1.58;;;8.00;99.90;;;;;;4985992;28;20045;-87
2023/02/19 07:22:32;;;;;;;3.25;1.15;;;8.00;99.90;;;;;;5002255;28;20452;-88
2023/02/19 07:25:00;;;;;;;2.25;1.02;;;8.00;99.90;;;;;;4986694;28;20110;-87
2023/02/19 07:27:26;;;;;;;2.47;1.00;;;8.00;99.90;;;;;;4984199;28;20069;-88
2023/02/19 07:29:54;;;;;;;2.78;0.90;;;8.00;99.90;;;;;;4999418;28;20084;-87
2023/02/19 07:32:21;;;;;;;3.33;1.00;;;8.00;99.90;;;;;;4985398;28;20386;-88
2023/02/19 07:34:48;;;;;;;2.67;1.02;;;8.10;99.90;;;;;;4985132;28;20800;-88
2023/02/19 07:37:15;;;;;;;2.63;0.88;;;8.10;99.90;;;;;;5002483;28;20050;-88
2023/02/19 07:39:42;;;;;;;2.70;1.17;;;8.10;99.90;;;;;;5023522;28;20143;-87
2023/02/19 07:42:09;;;;;;;4.90;1.30;;;8.10;99.90;;;;;;5000870;28;20057;-88
2023/02/19 07:44:36;;;;;;;2.97;1.15;;;8.20;99.90;;;;;;4969417;28;20127;-88
2023/02/19 07:47:03;;;;;;;1.95;0.90;;;8.20;99.90;;;;;;4998159;28;20377;-88
2023/02/19 07:49:31;;;;;;;3.42;1.20;;;8.20;99.90;;;;;;5002684;28;20562;-88
2023/02/19 07:51:58;;;;;;;2.75;0.85;;;8.20;99.90;;;;;;4975369;28;20157;-87
2023/02/19 07:54:25;;;;;;;5.97;1.35;;;8.30;99.90;;;;;;4981677;28;20248;-87
2023/02/19 07:56:52;;;;;;;2.42;1.20;;;8.30;99.90;;;;;;4952507;28;20056;-88
2023/02/19 07:59:20;;;;;;;2.78;1.30;;;8.30;99.90;;;;;;4983763;28;20046;-88
2023/02/19 08:04:32;;;;;;;4.88;1.75;;;8.30;99.90;;;;;;4963290;28;20120;-87
2023/02/19 08:06:59;;;;;;;2.40;1.17;;;8.30;99.90;;;;;;4981023;28;20050;-87
2023/02/19 08:09:27;;;;;;;1.70;0.98;;;8.40;99.90;;;;;;4982006;28;20050;-88
2023/02/19 08:14:39;;;;;;;3.80;1.10;;;8.40;99.90;;;;;;4979789;28;20064;-88
2023/02/19 08:17:06;;;;;;;2.20;1.08;;;8.40;99.90;;;;;;4982112;28;20065;-87
2023/02/19 08:19:33;;;;;;;4.22;1.23;;;8.50;99.90;;;;;;4980793;28;20477;-88
2023/02/19 08:22:00;;;;;;;3.78;1.20;;;8.50;99.90;;;;;;4982411;28;20068;-88
2023/02/19 08:24:27;;;;;;;3.72;1.20;;;8.50;99.90;;;;;;4996591;28;20054;-87
2023/02/19 08:26:54;;;;;;;1.30;0.80;;;8.50;99.90;;;;;;4964225;28;20497;-87
2023/02/19 08:29:22;;;;;;;1.08;0.85;;;8.60;99.90;;;;;;4980400;28;20047;-87
2023/02/19 08:31:50;;;;;;;1.85;0.85;;;8.60;99.90;;;;;;4981905;28;20165;-87
2023/02/19 08:34:17;;;;;;;3.90;1.17;;;8.60;99.90;;;;;;4996015;28;20524;-87
2023/02/19 08:36:44;;;;;;;3.63;0.90;;;8.60;99.90;;;;;;4948031;28;20066;-86
2023/02/19 08:39:12;;;;;;;1.48;0.60;;;8.60;99.90;;;;;;4981111;28;20153;-87
2023/02/19 08:41:38;;;;;;;1.80;0.70;;;8.70;99.90;;;;;;4995452;28;20151;-85
2023/02/19 08:44:05;;;;;;;1.60;0.73;;;8.70;99.90;;;;;;4978843;28;20045;-87
2023/02/19 08:46:32;;;;;;;1.70;1.00;;;8.70;99.90;;;;;;4978360;28;20116;-86
2023/02/19 08:49:00;;;;;;;1.73;0.70;;;8.70;99.90;;;;;;4944013;28;20054;-88
2023/02/19 08:51:27;;;;;;;1.40;0.75;;;8.70;99.90;;;;;;4944092;28;20221;-88
2023/02/19 08:53:54;;;;;;;3.08;1.27;;;8.70;99.90;;;;;;4974438;28;20072;-87
2023/02/19 08:56:21;;;;;;;2.00;1.00;;;8.70;99.90;;;;;;4950659;28;20485;-87
2023/02/19 08:58:47;;;;;;;1.75;0.80;;;8.70;99.90;;;;;;4951207;28;20564;-87
2023/02/19 09:01:17;;;;;;;1.83;0.90;;;8.70;99.90;;;;;;4951003;28;20452;-88
2023/02/19 09:03:44;;;;;;;6.38;1.60;;;8.70;99.90;;;;;;4983400;28;20050;-86
2023/02/19 09:06:16;;;;;;;2.55;1.08;;;8.70;99.90;;;;;;4981991;28;20173;-86
2023/02/19 09:08:43;;;;;;;2.22;0.75;;;8.70;99.90;;;;;;4999268;28;20255;-86
2023/02/19 09:11:10;;;;;;;1.83;0.90;;;8.80;99.90;;;;;;4966714;28;20086;-86
2023/02/19 09:13:37;;;;;;;3.08;0.95;;;8.80;99.90;;;;;;4980471;28;20456;-85
2023/02/19 09:16:04;;;;;;;3.38;1.10;;;8.80;99.90;;;;;;4981661;28;20195;-86
2023/02/19 09:18:31;;;;;;;2.22;0.98;;;8.80;99.90;;;;;;4978368;28;20047;-87
2023/02/19 09:21:00;;;;;;;2.83;1.15;;;8.70;99.90;;;;;;4979885;28;20059;-88
2023/02/19 09:23:28;;;;;;;3.45;1.52;;;8.70;99.90;;;;;;4993800;28;20058;-88
2023/02/19 09:25:59;;;;;;;2.65;1.17;;;8.80;99.90;;;;;;4966436;28;20847;-87
2023/02/19 09:28:26;;;;;;;2.00;1.17;;;8.80;99.90;;;;;;4966670;28;20545;-88
2023/02/19 09:30:53;;;;;;;2.83;1.20;;;8.90;99.90;;;;;;4983440;28;20237;-88
2023/02/19 09:33:21;;;;;;;4.63;1.35;;;8.90;99.90;;;;;;4951390;28;20525;-88
2023/02/19 09:35:48;;;;;;;2.25;1.02;;;9.00;99.90;;;;;;4980093;28;20161;-88
2023/02/19 09:38:15;;;;;;;3.33;1.10;;;9.00;99.90;;;;;;4979492;28;20439;-88
2023/02/19 09:40:42;;;;;;;2.22;0.95;;;9.10;99.90;;;;;;4982058;28;20492;-88
2023/02/19 09:43:11;;;;;;;2.20;1.30;;;9.20;99.90;;;;;;4983620;28;20148;-88
2023/02/19 09:45:38;;;;;;;1.73;0.90;;;9.20;99.90;;;;;;4965985;28;20440;-88
2023/02/19 09:48:05;;;;;;;2.38;1.20;;;9.20;99.90;;;;;;4966646;28;20068;-87
2023/02/19 09:50:35;;;;;;;2.28;1.25;;;9.30;99.90;;;;;;4982580;28;20159;-88
2023/02/19 09:53:04;;;;;;;3.17;1.20;;;9.30;99.90;;;;;;4942118;28;20551;-88
2023/02/19 09:55:35;;;;;;;2.10;0.73;;;9.40;99.90;;;;;;4982808;28;20141;-87
2023/02/19 09:58:16;;;;;;;2.97;1.35;;;9.50;99.90;;;;;;4982337;28;20789;-87
2023/02/19 10:00:44;;;;;;;2.75;1.15;;;9.50;99.90;;;;;;4966325;28;20504;-87
2023/02/19 10:03:17;;;;;;;2.67;1.52;;;9.50;99.90;;;;;;4966112;28;20422;-87
2023/02/19 10:05:44;;;;;;;2.35;1.30;;;9.60;99.90;;;;;;4982430;28;20073;-88
2023/02/19 10:08:14;;;;;;;2.60;1.08;;;9.60;99.90;;;;;;4963149;28;20082;-88
2023/02/19 10:10:41;;;;;;;7.22;1.58;;;9.60;99.90;;;;;;4962745;28;20418;-87
2023/02/19 10:13:21;;;;;;;4.43;1.23;;;9.60;99.90;;;;;;4965931;28;20414;-88
2023/02/19 10:15:53;;;;;;;2.60;1.52;;;9.70;99.90;;;;;;4969151;28;20050;-87
2023/02/19 10:18:22;;;;;;;2.10;1.23;;;9.80;99.90;;;;;;4960151;28;20054;-88
2023/02/19 10:20:50;;;;;;;3.45;1.42;;;9.90;99.90;;;;;;4981312;28;20043;-88
2023/02/19 10:23:17;;;;;;;1.58;1.00;;;9.90;99.90;;;;;;4983706;28;20162;-88
2023/02/19 10:25:47;;;;;;;1.98;1.10;;;10.00;99.90;;;;;;4966462;28;20129;-88
2023/02/19 10:28:17;;;;;;;2.58;1.15;;;10.10;99.90;;;;;;4982458;28;20057;-88
2023/02/19 10:30:44;;;;;;;3.63;1.00;;;10.20;99.90;;;;;;4965698;28;20461;-88
2023/02/19 10:33:12;;;;;;;1.95;1.00;;;10.40;99.90;;;;;;4981837;28;20529;-87
2023/02/19 10:35:59;;;;;;;3.08;1.05;;;10.40;99.90;;;;;;4963569;28;20413;-84
2023/02/19 10:38:28;;;;;;;2.15;1.10;;;10.50;99.90;;;;;;4977049;28;20557;-86
2023/02/19 10:41:16;;;;;;;2.72;1.10;;;10.40;99.90;;;;;;4977289;28;20056;-87
2023/02/19 10:43:57;;;;;;;1.25;0.70;;;10.40;99.90;;;;;;4955871;28;20058;-88
2023/02/19 10:46:26;;;;;;;2.22;1.13;;;10.30;99.90;;;;;;4970057;28;20487;-86
2023/02/19 10:48:58;;;;;;;2.17;1.10;;;10.30;99.90;;;;;;4955966;28;20120;-86
2023/02/19 10:51:35;;;;;;;2.13;0.80;;;10.20;99.90;;;;;;4957324;28;20061;-86
2023/02/19 10:54:23;;;;;;;3.85;1.10;;;10.30;99.90;;;;;;4963897;28;20054;-87
2023/02/19 10:56:50;;;;;;;1.98;0.93;;;10.40;99.90;;;;;;4961478;28;20057;-86
2023/02/19 10:59:17;;;;;;;3.72;1.02;;;10.50;99.90;;;;;;4981579;28;20324;-88
2023/02/19 11:01:57;;;;;;;2.25;1.10;;;10.70;99.90;;;;;;4981519;28;20061;-86
2023/02/19 11:04:26;;;;;;;3.50;1.10;;;10.90;99.90;;;;;;4977907;28;20556;-87
2023/02/19 11:06:53;;;;;;;1.80;1.10;;;11.00;99.90;;;;;;4945849;28;20357;-87
2023/02/19 11:09:39;;;;;;;2.30;1.10;;;11.10;99.90;;;;;;4960058;28;20136;-88
2023/02/19 11:12:06;;;;;;;4.15;1.00;;;11.20;99.90;;;;;;4977777;28;20050;-88
2023/02/19 11:14:36;;;;;;;4.57;1.00;;;11.20;99.90;;;;;;4964512;28;20058;-87
2023/02/19 11:17:06;;;;;;;1.67;1.00;;;11.40;99.90;;;;;;5012262;28;20136;-86
2023/02/19 11:19:41;;;;;;;1.40;0.90;;;11.50;99.90;;;;;;4992003;28;20476;-86
2023/02/19 11:22:30;;;;;;;2.08;0.93;;;11.60;99.90;;;;;;4977100;28;20050;-88
2023/02/19 11:25:04;;;;;;;2.45;0.90;;;11.70;99.90;;;;;;4976417;28;20061;-85
2023/02/19 11:27:31;;;;;;;1.40;0.95;;;11.70;99.90;;;;;;4978193;28;20050;-88
2023/02/19 11:30:30;;;;;;;2.45;0.70;;;11.70;99.90;;;;;;4978178;28;20042;-88
2023/02/19 11:33:20;;;;;;;1.33;0.70;;;11.80;99.90;;;;;;4962396;28;20049;-87
2023/02/19 11:35:54;;;;;;;1.70;0.82;;;11.80;99.90;;;;;;5010564;28;20133;-90
2023/02/19 11:38:21;;;;;;;1.27;0.70;;;11.80;99.90;;;;;;4983047;28;20057;-86
2023/02/19 11:41:01;;;;;;;1.75;0.93;;;11.70;99.90;;;;;;4963149;28;20267;-87
2023/02/19 11:44:00;;;;;;;2.05;1.00;;;11.70;99.90;;;;;;4976302;28;20050;-88
2023/02/19 11:46:39;;;;;;;2.22;0.80;;;11.80;99.90;;;;;;4972780;28;20133;-88
2023/02/19 11:49:12;;;;;;;1.25;0.70;;;11.90;99.90;;;;;;4978483;28;20232;-87
2023/02/19 11:51:57;;;;;;;1.15;0.90;;;12.00;99.90;;;;;;4984592;28;20316;-88
2023/02/19 11:54:38;;;;;;;2.88;1.33;;;12.20;99.90;;;;;;4994255;28;20516;-89
2023/02/19 11:57:22;;;;;;;1.80;0.80;;;12.30;99.90;;;;;;4996526;28;20052;-86
2023/02/19 12:00:09;;;;;;;2.25;0.98;;;12.40;99.90;;;;;;4992504;28;20054;-81
2023/02/19 12:02:53;;;;;;;1.02;0.82;;;12.40;99.90;;;;;;4995979;28;20146;-81
2023/02/19 12:05:47;;;;;;;2.35;1.00;;;12.60;99.90;;;;;;4991148;28;20054;-81
2023/02/19 12:08:24;;;;;;;1.52;0.80;;;12.80;99.90;;;;;;4973203;28;20429;-82
2023/02/19 12:11:09;;;;;;;2.70;1.05;;;12.90;99.90;;;;;;4979630;28;20050;-81
2023/02/19 12:13:57;;;;;;;2.95;1.00;;;13.10;99.90;;;;;;4988165;28;20441;-82
2023/02/19 12:16:33;;;;;;;1.45;0.75;;;13.30;99.90;;;;;;4988289;28;20252;-84
2023/02/19 12:19:12;;;;;;;1.52;0.82;;;13.30;99.90;;;;;;4991019;28;20108;-86
2023/02/19 12:21:58;;;;;;;1.67;0.88;;;13.40;99.90;;;;;;4997291;28;20050;-85
2023/02/19 12:24:49;;;;;;;2.67;0.93;;;13.50;99.90;;;;;;4996635;28;20074;-85
2023/02/19 12:27:54;;;;;;;1.10;0.77;;;13.70;99.90;;;;;;4994765;28;20069;-82
2023/02/19 12:30:27;;;;;;;1.23;0.70;;;13.60;99.90;;;;;;4985717;28;20381;-81
2023/02/19 12:33:04;;;;;;;0.98;0.68;;;13.40;99.90;;;;;;4993769;28;20335;-81
2023/02/19 12:35:58;;;;;;;2.25;0.77;;;13.40;99.90;;;;;;4992814;28;20509;-82
2023/02/19 12:38:44;;;;;;;1.50;0.85;;;13.50;99.90;;;;;;4976254;28;20052;-81
2023/02/19 12:41:15;;;;;;;2.88;0.75;;;13.60;99.90;;;;;;4991534;28;20045;-82
2023/02/19 12:43:54;;;;;;;1.23;0.70;;;13.70;99.80;;;;;;5005082;28;20045;-82
2023/02/19 12:46:28;;;;;;;1.15;0.63;;;13.90;99.60;;;;;;4979154;28;20064;-82
2023/02/19 12:49:33;;;;;;;1.50;0.70;;;14.20;99.60;;;;;;5007757;28;20078;-82
2023/02/19 12:52:20;;;;;;;1.25;0.80;;;14.20;98.90;;;;;;4913789;29;20155;-84
2023/02/19 12:54:49;;;;;;;2.50;0.70;;;14.40;98.70;;;;;;4914011;29;20491;-80
2023/02/19 12:57:32;;;;;;;1.25;0.77;;;14.30;98.40;;;;;;4934243;28;20140;-83
2023/02/19 13:00:06;;;;;;;2.03;0.90;;;14.20;98.30;;;;;;4962257;28;20073;-81
2023/02/19 13:02:43;;;;;;;1.17;0.65;;;14.10;98.10;;;;;;4978314;28;20052;-83
2023/02/19 13:05:22;;;;;;;1.20;0.82;;;14.20;99.20;;;;;;4992656;28;20742;-83
2023/02/19 13:08:11;;;;;;;2.65;0.90;;;14.30;98.60;;;;;;4992196;28;20138;-84
2023/02/19 13:10:52;;;;;;;1.20;0.70;;;14.00;98.70;;;;;;4994745;28;20497;-82
2023/02/19 13:13:22;;;;;;;1.20;0.60;;;13.90;99.20;;;;;;4994171;28;20126;-84
2023/02/19 13:15:52;;;;;;;1.50;0.60;;;13.90;99.20;;;;;;4993748;28;20061;-82
2023/02/19 13:18:24;;;;;;;0.77;0.60;;;13.90;99.40;;;;;;4980092;28;20104;-83
2023/02/19 13:20:53;;;;;;;0.97;0.80;;;14.00;99.50;;;;;;4979149;28;20045;-76
2023/02/19 13:26:36;;;;;;;1.88;0.80;;;14.00;99.60;;;;;;4990597;28;20060;-76
2023/02/19 13:29:28;;;;;;;1.08;0.60;;;14.10;99.70;;;;;;4988208;28;20063;-77
2023/02/19 13:32:13;;;;;;;1.05;0.60;;;14.10;99.30;;;;;;5005772;28;20050;-76
2023/02/19 13:35:01;;;;;;;1.08;0.85;;;14.00;99.70;;;;;;4992121;28;20050;-76
2023/02/19 13:37:31;;;;;;;2.35;0.80;;;13.90;99.80;;;;;;4994119;28;20065;-76
2023/02/19 13:39:58;;;;;;;1.38;0.68;;;14.10;99.90;;;;;;5011932;28;20060;-75
2023/02/19 13:42:30;;;;;;;0.65;0.60;;;14.10;99.80;;;;;;4995589;28;20061;-76
2023/02/19 13:44:57;;;;;;;1.13;0.80;;;14.20;99.80;;;;;;4991075;28;20058;-76
2023/02/19 13:47:44;;;;;;;1.08;0.68;;;14.30;99.50;;;;;;4963190;28;20057;-76